Time;durP1;ratioP1;P1;durP2;ratioP2;P2;SDS_P1;SDS_P2;PMS_P1;PMS_P2;Temp;Humidity;BMP_temperature;BMP_pressure;BME280_temperature;BME280_humidity;BME280_pressure;Samples;Min_cycle;Max_cycle;Signal;HPM_P1;HPM_P2
2023/09/04 00:02:37;;;;;;;;;;;;;;;;;;8328927;28;20060;-91
2023/09/04 00:06:41;;;;;;;10.77;5.35;;;;;;;;;;8336071;28;19921;-95
2023/09/04 00:10:44;;;;;;;10.75;6.22;;;;;;;;;;8338035;28;20455;-88
2023/09/04 00:14:47;;;;;;;9.75;5.88;;;;;;;;;;8335425;28;20456;-93
2023/09/04 00:18:52;;;;;;;7.70;5.80;;;;;;;;;;8336265;28;20049;-93
2023/09/04 00:22:55;;;;;;;11.70;6.22;;;;;;;;;;8329551;28;20050;-95
2023/09/04 00:26:58;;;;;;;10.50;6.30;;;;;;;;;;8316840;28;20684;-95
2023/09/04 00:31:03;;;;;;;9.32;5.65;;;;;;;;;;8330719;28;20079;-93
2023/09/04 00:35:09;;;;;;;10.02;5.80;;;;;;;;;;8321827;28;20141;-95
2023/09/04 00:39:12;;;;;;;9.32;5.70;;;;;;;;;;8315529;28;20405;-88
2023/09/04 00:43:15;;;;;;;11.55;6.30;;;;;;;;;;8332556;28;20140;-93
2023/09/04 00:47:20;;;;;;;13.57;6.40;;;;;;;;;;8332519;28;20053;-95
2023/09/04 00:51:29;;;;;;;17.05;6.40;;;;;;;;;;8323133;28;20052;-96
2023/09/04 00:55:32;;;;;;;12.60;5.90;;;;;;;;;;8333200;28;20061;-94
2023/09/04 00:59:35;;;;;;;9.35;6.28;;;;;;;;;;8313709;28;20046;-92
2023/09/04 01:03:38;;;;;;;9.90;6.00;;;;;;;;;;8329628;28;20084;-96
2023/09/04 01:07:44;;;;;;;8.88;5.93;;;;;;;;;;8331926;28;20085;-94
2023/09/04 01:11:57;;;;;;;9.38;6.00;;;;;;;;;;8334624;28;20567;-93
2023/09/04 01:21:25;;;;;;;8.85;6.05;;;;;;;;;;8178981;29;20039;-88
2023/09/04 01:26:38;;;;;;;16.97;7.07;;;;;;;;;;8179691;29;20142;-88
2023/09/04 01:31:47;;;;;;;12.07;6.80;;;;;;;;;;8171784;29;20404;-88
2023/09/04 01:36:08;;;;;;;9.75;6.65;;;;;;;;;;8193884;29;20055;-88
2023/09/04 01:40:12;;;;;;;9.70;6.68;;;;;;;;;;8173103;29;20064;-90
2023/09/04 01:44:15;;;;;;;13.02;7.60;;;;;;;;;;8151473;29;20460;-90
2023/09/04 01:48:18;;;;;;;13.52;7.75;;;;;;;;;;8114827;29;20060;-92
2023/09/04 01:52:23;;;;;;;10.48;7.18;;;;;;;;;;8296910;28;20516;-96
2023/09/04 01:56:26;;;;;;;14.98;7.75;;;;;;;;;;8319499;28;20050;-95
2023/09/04 02:00:31;;;;;;;11.00;7.20;;;;;;;;;;8318161;28;20044;-89
2023/09/04 02:04:34;;;;;;;13.43;8.20;;;;;;;;;;8326640;28;20042;-93
2023/09/04 02:08:42;;;;;;;17.88;9.20;;;;;;;;;;8320040;28;20053;-87
2023/09/04 02:12:53;;;;;;;15.48;8.45;;;;;;;;;;8317714;28;20061;-93
2023/09/04 02:17:11;;;;;;;12.63;8.10;;;;;;;;;;8318861;28;20058;-89
2023/09/04 02:21:16;;;;;;;18.00;8.20;;;;;;;;;;8319597;28;20057;-91
2023/09/04 02:25:29;;;;;;;15.45;8.32;;;;;;;;;;8320210;28;20077;-91
2023/09/04 02:29:33;;;;;;;13.30;8.18;;;;;;;;;;8318599;28;20062;-90
2023/09/04 02:33:39;;;;;;;17.40;10.32;;;;;;;;;;8315703;28;20053;-96
2023/09/04 02:37:47;;;;;;;19.23;11.60;;;;;;;;;;8316851;28;20088;-95
2023/09/04 02:42:00;;;;;;;23.13;12.55;;;;;;;;;;8321341;28;20072;-92
2023/09/04 02:50:47;;;;;;;29.38;14.75;;;;;;;;;;8342882;28;20054;-96
2023/09/04 02:54:50;;;;;;;28.52;14.18;;;;;;;;;;8323182;28;20136;-96
2023/09/04 03:03:31;;;;;;;42.40;17.05;;;;;;;;;;8352796;28;20119;-91
2023/09/04 03:07:47;;;;;;;27.13;15.52;;;;;;;;;;8350109;28;20076;-90
2023/09/04 03:11:51;;;;;;;24.80;15.95;;;;;;;;;;8364026;28;20088;-88
2023/09/04 03:16:01;;;;;;;24.83;13.93;;;;;;;;;;8368630;28;20037;-87
2023/09/04 03:20:19;;;;;;;24.13;14.75;;;;;;;;;;8354871;28;20057;-88
2023/09/04 03:24:46;;;;;;;20.02;13.35;;;;;;;;;;8374383;28;20051;-87
2023/09/04 03:28:52;;;;;;;24.23;14.75;;;;;;;;;;8376708;28;20049;-86
2023/09/04 03:32:58;;;;;;;14.30;8.68;;;;;;;;;;8376926;28;20034;-86
2023/09/04 03:37:03;;;;;;;16.52;9.73;;;;;;;;;;8344837;28;20061;-94
2023/09/04 03:41:06;;;;;;;20.73;10.30;;;;;;;;;;8344890;28;20563;-91
2023/09/04 03:45:09;;;;;;;22.38;12.88;;;;;;;;;;8315803;28;20072;-94
2023/09/04 03:49:14;;;;;;;28.05;13.52;;;;;;;;;;8322391;28;20084;-92
2023/09/04 03:53:18;;;;;;;19.08;9.73;;;;;;;;;;8333653;28;20060;-92
2023/09/04 03:57:21;;;;;;;16.15;9.65;;;;;;;;;;8333477;28;20049;-94
2023/09/04 04:01:24;;;;;;;15.48;9.15;;;;;;;;;;8333289;28;20069;-94
2023/09/04 04:05:29;;;;;;;22.13;8.80;;;;;;;;;;8321051;28;20045;-95
2023/09/04 04:09:33;;;;;;;18.33;9.55;;;;;;;;;;8322553;28;20111;-93
2023/09/04 04:13:36;;;;;;;21.17;12.07;;;;;;;;;;8335071;28;20111;-91
2023/09/04 04:17:41;;;;;;;19.40;11.25;;;;;;;;;;8338995;28;20057;-96
2023/09/04 04:21:45;;;;;;;16.10;10.52;;;;;;;;;;8323412;28;20063;-87
2023/09/04 04:25:49;;;;;;;15.80;9.77;;;;;;;;;;8334269;28;20053;-96
2023/09/04 04:30:02;;;;;;;23.10;13.05;;;;;;;;;;8351793;28;20049;-93
2023/09/04 04:34:38;;;;;;;22.25;14.27;;;;;;;;;;8348831;28;20057;-92
2023/09/04 04:43:22;;;;;;;19.02;11.43;;;;;;;;;;8325398;28;20066;-94
2023/09/04 04:47:46;;;;;;;13.70;9.73;;;;;;;;;;8325627;28;20049;-91
2023/09/04 04:51:57;;;;;;;17.23;10.25;;;;;;;;;;8318214;28;20113;-90
2023/09/04 04:56:14;;;;;;;19.85;11.32;;;;;;;;;;8319782;28;20060;-87
2023/09/04 05:00:30;;;;;;;20.15;11.25;;;;;;;;;;8320960;28;20414;-89
2023/09/04 05:05:01;;;;;;;25.85;12.88;;;;;;;;;;8308926;28;20042;-87
2023/09/04 05:09:14;;;;;;;25.13;12.55;;;;;;;;;;8264588;28;20092;-89
2023/09/04 05:22:54;;;;;;;23.77;8.85;;;;;;;;;;8226415;28;20030;-94
2023/09/04 05:26:57;;;;;;;17.65;9.35;;;;;;;;;;8229999;28;20065;-94
2023/09/04 05:31:04;;;;;;;14.43;8.10;;;;;;;;;;8210492;28;20073;-91
2023/09/04 05:35:08;;;;;;;14.02;7.88;;;;;;;;;;8229903;28;20499;-94
2023/09/04 05:39:11;;;;;;;9.30;6.28;;;;;;;;;;8229238;28;20061;-95
2023/09/04 05:43:16;;;;;;;11.02;6.82;;;;;;;;;;8308470;28;20061;-92
2023/09/04 05:47:23;;;;;;;10.20;6.40;;;;;;;;;;8335246;28;20057;-91
2023/09/04 05:51:26;;;;;;;9.20;6.32;;;;;;;;;;8324706;28;20054;-91
2023/09/04 05:55:29;;;;;;;9.18;5.93;;;;;;;;;;8324984;28;20049;-89
2023/09/04 05:59:32;;;;;;;10.38;5.75;;;;;;;;;;8312129;28;20057;-92
2023/09/04 06:03:36;;;;;;;10.13;4.88;;;;;;;;;;8331971;28;20068;-91
2023/09/04 06:07:39;;;;;;;8.25;5.00;;;;;;;;;;8331149;28;20061;-94
2023/09/04 06:11:45;;;;;;;12.98;4.90;;;;;;;;;;8331285;28;20095;-91
2023/09/04 06:16:08;;;;;;;7.57;4.45;;;;;;;;;;8318614;28;20070;-91
2023/09/04 06:20:13;;;;;;;7.07;4.40;;;;;;;;;;8323126;28;20057;-92
2023/09/04 06:24:18;;;;;;;9.07;4.03;;;;;;;;;;8328907;28;20156;-91
2023/09/04 06:28:26;;;;;;;7.70;4.57;;;;;;;;;;8308849;28;20062;-91
2023/09/04 06:32:34;;;;;;;8.27;4.60;;;;;;;;;;8301968;28;20061;-93
2023/09/04 06:36:38;;;;;;;8.32;4.45;;;;;;;;;;8326504;28;20559;-91
2023/09/04 06:40:42;;;;;;;8.50;5.00;;;;;;;;;;8329106;28;20057;-92
2023/09/04 06:44:45;;;;;;;7.50;4.40;;;;;;;;;;8330919;28;20059;-89
2023/09/04 06:48:52;;;;;;;7.90;4.90;;;;;;;;;;8332010;28;20084;-89
2023/09/04 06:53:02;;;;;;;11.05;4.78;;;;;;;;;;8314093;28;20141;-87
2023/09/04 06:57:07;;;;;;;8.43;3.92;;;;;;;;;;8342066;28;20103;-88
2023/09/04 07:01:13;;;;;;;8.00;3.92;;;;;;;;;;8348712;28;20049;-91
2023/09/04 07:05:17;;;;;;;7.72;4.05;;;;;;;;;;8332911;28;20057;-94
2023/09/04 07:09:23;;;;;;;6.15;3.55;;;;;;;;;;8318182;28;20065;-95
2023/09/04 07:13:28;;;;;;;8.85;3.85;;;;;;;;;;8334818;28;20073;-96
2023/09/04 07:17:34;;;;;;;6.38;3.50;;;;;;;;;;8331147;28;20049;-93
2023/09/04 07:21:37;;;;;;;8.57;3.78;;;;;;;;;;8344363;28;20049;-90
2023/09/04 07:26:16;;;;;;;9.82;4.00;;;;;;;;;;8330625;28;20050;-88
2023/09/04 07:35:28;;;;;;;6.30;3.20;;;;;;;;;;8325911;28;20608;-96
2023/09/04 07:39:34;;;;;;;5.10;3.50;;;;;;;;;;8361356;28;20057;-93
2023/09/04 07:48:11;;;;;;;4.93;3.10;;;;;;;;;;8348789;28;20076;-96
2023/09/04 07:52:25;;;;;;;5.47;3.03;;;;;;;;;;8333941;28;20516;-90
2023/09/04 07:56:29;;;;;;;6.40;3.35;;;;;;;;;;8349209;28;20053;-95
2023/09/04 08:00:43;;;;;;;5.97;3.17;;;;;;;;;;8348342;28;20049;-95
2023/09/04 08:05:02;;;;;;;6.65;3.83;;;;;;;;;;8338918;28;20057;-93
2023/09/04 08:09:06;;;;;;;7.47;3.47;;;;;;;;;;8370838;22;20060;-94
2023/09/04 08:13:11;;;;;;;5.03;3.20;;;;;;;;;;8348715;28;20048;-96
2023/09/04 08:17:13;;;;;;;5.78;3.33;;;;;;;;;;8340378;28;20056;-96
2023/09/04 08:21:20;;;;;;;7.03;3.15;;;;;;;;;;8366749;28;20064;-93
2023/09/04 08:25:23;;;;;;;5.53;3.08;;;;;;;;;;8365788;28;20088;-95
2023/09/04 08:29:25;;;;;;;8.95;3.40;;;;;;;;;;8333877;28;20058;-95
2023/09/04 08:33:29;;;;;;;6.15;3.15;;;;;;;;;;8346832;28;20084;-94
2023/09/04 08:37:33;;;;;;;5.50;3.05;;;;;;;;;;8365242;28;20065;-91
2023/09/04 08:41:38;;;;;;;7.43;3.13;;;;;;;;;;8364724;28;20063;-91
2023/09/04 08:45:42;;;;;;;5.50;2.80;;;;;;;;;;8364905;28;20075;-95
2023/09/04 08:49:46;;;;;;;5.28;3.08;;;;;;;;;;8340714;28;20051;-93
2023/09/04 08:53:55;;;;;;;7.80;2.97;;;;;;;;;;8345823;28;20045;-93
2023/09/04 08:58:00;;;;;;;8.98;3.10;;;;;;;;;;8364328;28;20079;-92
2023/09/04 09:02:05;;;;;;;5.28;2.80;;;;;;;;;;8364615;28;20512;-91
2023/09/04 09:06:08;;;;;;;7.32;3.17;;;;;;;;;;8360555;28;20057;-91
2023/09/04 09:10:20;;;;;;;6.65;2.90;;;;;;;;;;8362245;28;20061;-92
2023/09/04 09:14:23;;;;;;;5.95;3.00;;;;;;;;;;8345752;28;20052;-92
2023/09/04 09:18:37;;;;;;;8.40;3.20;;;;;;;;;;8362829;28;20075;-93
2023/09/04 09:22:51;;;;;;;6.20;3.00;;;;;;;;;;8330999;28;20113;-93
2023/09/04 09:26:56;;;;;;;4.70;2.80;;;;;;;;;;8320847;28;20060;-92
2023/09/04 09:31:00;;;;;;;7.90;2.85;;;;;;;;;;8364467;28;20048;-89
2023/09/04 09:35:04;;;;;;;5.25;3.00;;;;;;;;;;8369017;28;20059;-93
2023/09/04 09:39:07;;;;;;;5.63;2.83;;;;;;;;;;8381910;28;20030;-94
2023/09/04 09:43:11;;;;;;;5.10;2.63;;;;;;;;;;8372771;28;20045;-92
2023/09/04 09:47:18;;;;;;;4.10;2.60;;;;;;;;;;8332071;28;20077;-91
2023/09/04 09:51:24;;;;;;;3.80;2.42;;;;;;;;;;8330264;28;20119;-93
2023/09/04 09:55:29;;;;;;;7.05;2.80;;;;;;;;;;8322759;28;20061;-90
2023/09/04 09:59:34;;;;;;;5.40;3.45;;;;;;;;;;8324899;28;20084;-94
2023/09/04 10:03:38;;;;;;;4.03;2.80;;;;;;;;;;8338871;28;20053;-92
2023/09/04 10:07:44;;;;;;;5.97;2.88;;;;;;;;;;8345983;28;20059;-92
2023/09/04 10:11:50;;;;;;;6.32;2.80;;;;;;;;;;8339403;28;20096;-90
2023/09/04 10:15:59;;;;;;;6.53;2.72;;;;;;;;;;8340496;28;20049;-90
2023/09/04 10:20:05;;;;;;;4.07;2.63;;;;;;;;;;8365888;28;20060;-92
2023/09/04 10:24:13;;;;;;;4.07;2.65;;;;;;;;;;8325486;28;20478;-92
2023/09/04 10:28:22;;;;;;;5.68;2.55;;;;;;;;;;8336911;28;20064;-89
2023/09/04 10:32:32;;;;;;;5.32;3.10;;;;;;;;;;8328583;28;20067;-92
2023/09/04 10:36:37;;;;;;;4.47;2.50;;;;;;;;;;8352131;28;20061;-94
2023/09/04 10:40:44;;;;;;;4.05;2.55;;;;;;;;;;8340982;28;20053;-94
2023/09/04 10:44:53;;;;;;;4.03;2.65;;;;;;;;;;8326243;28;20107;-92
2023/09/04 10:48:58;;;;;;;5.30;2.63;;;;;;;;;;8360539;28;20057;-89
2023/09/04 10:53:02;;;;;;;5.75;2.40;;;;;;;;;;8343905;28;20057;-89
2023/09/04 10:57:07;;;;;;;5.10;2.45;;;;;;;;;;8339470;28;20164;-89
2023/09/04 11:01:32;;;;;;;5.50;2.65;;;;;;;;;;8328443;28;20691;-89
2023/09/04 11:06:10;;;;;;;3.92;2.58;;;;;;;;;;8354215;28;20057;-87
2023/09/04 11:10:36;;;;;;;5.05;2.38;;;;;;;;;;8346328;28;20062;-90
2023/09/04 11:14:46;;;;;;;4.50;2.60;;;;;;;;;;8346323;28;20413;-91
2023/09/04 11:19:03;;;;;;;4.32;2.65;;;;;;;;;;8360843;28;20076;-91
2023/09/04 11:23:13;;;;;;;4.38;2.25;;;;;;;;;;8346499;28;20107;-95
2023/09/04 11:27:16;;;;;;;5.45;2.65;;;;;;;;;;8360678;28;20051;-96
2023/09/04 11:31:21;;;;;;;5.78;2.70;;;;;;;;;;8367433;28;20063;-92
2023/09/04 11:35:24;;;;;;;4.28;2.67;;;;;;;;;;8353320;28;20053;-94
2023/09/04 11:39:31;;;;;;;5.00;2.58;;;;;;;;;;8345492;28;20050;-96
2023/09/04 11:43:34;;;;;;;10.20;2.95;;;;;;;;;;8357169;28;20049;-94
2023/09/04 11:47:38;;;;;;;5.50;2.72;;;;;;;;;;8352135;28;20049;-91
2023/09/04 11:51:48;;;;;;;3.53;2.45;;;;;;;;;;8356302;28;20428;-92
2023/09/04 11:55:54;;;;;;;5.30;2.78;;;;;;;;;;8345513;28;20144;-94
2023/09/04 11:59:59;;;;;;;5.75;2.53;;;;;;;;;;8354141;28;20144;-90
2023/09/04 12:04:03;;;;;;;5.38;2.60;;;;;;;;;;8333223;28;20053;-90
2023/09/04 12:08:07;;;;;;;4.28;2.40;;;;;;;;;;8341495;28;20160;-92
2023/09/04 12:12:15;;;;;;;5.10;2.50;;;;;;;;;;8325811;28;20065;-91
2023/09/04 12:16:18;;;;;;;5.00;2.72;;;;;;;;;;8352377;28;20053;-93
2023/09/04 12:20:22;;;;;;;5.85;2.50;;;;;;;;;;8327676;28;20148;-94
2023/09/04 12:24:26;;;;;;;4.82;2.60;;;;;;;;;;8330457;28;20049;-93
2023/09/04 12:28:30;;;;;;;6.32;2.53;;;;;;;;;;8347234;28;20471;-94
2023/09/04 12:33:16;;;;;;;5.28;2.80;;;;;;;;;;8328078;28;20052;-92
2023/09/04 12:37:19;;;;;;;6.22;2.72;;;;;;;;;;8330349;28;20088;-92
2023/09/04 12:41:23;;;;;;;5.25;2.60;;;;;;;;;;8331430;28;20752;-91
2023/09/04 12:45:48;;;;;;;4.70;2.45;;;;;;;;;;8327890;28;20089;-92
2023/09/04 12:49:51;;;;;;;4.55;2.53;;;;;;;;;;8352511;28;20053;-94
2023/09/04 12:53:54;;;;;;;3.35;2.28;;;;;;;;;;8349784;28;20541;-89
2023/09/04 12:58:01;;;;;;;4.18;2.50;;;;;;;;;;8346504;28;20061;-93
2023/09/04 13:02:06;;;;;;;4.15;2.25;;;;;;;;;;8341901;28;20524;-92
2023/09/04 13:06:09;;;;;;;5.35;2.33;;;;;;;;;;8353911;28;20144;-95
2023/09/04 13:10:12;;;;;;;3.70;2.30;;;;;;;;;;8359958;28;20103;-93
2023/09/04 13:14:14;;;;;;;5.05;2.28;;;;;;;;;;8335872;28;20478;-90
2023/09/04 13:18:19;;;;;;;4.72;2.30;;;;;;;;;;8337817;28;20053;-91
2023/09/04 13:22:26;;;;;;;3.95;2.15;;;;;;;;;;8324310;28;20107;-91
2023/09/04 13:26:29;;;;;;;3.83;2.30;;;;;;;;;;8312782;28;20053;-91
2023/09/04 13:30:32;;;;;;;3.00;2.17;;;;;;;;;;8336484;28;20053;-91
2023/09/04 13:34:43;;;;;;;4.47;2.25;;;;;;;;;;8319310;28;20049;-90
2023/09/04 13:38:49;;;;;;;4.78;2.30;;;;;;;;;;8339106;28;20049;-90
2023/09/04 13:42:52;;;;;;;4.20;2.45;;;;;;;;;;8339713;28;20490;-91
2023/09/04 13:46:58;;;;;;;3.85;2.03;;;;;;;;;;8345945;28;20052;-92
2023/09/04 13:51:05;;;;;;;4.68;2.60;;;;;;;;;;8349658;28;20084;-94
2023/09/04 13:55:09;;;;;;;5.57;2.35;;;;;;;;;;8350123;28;20060;-91
2023/09/04 13:59:12;;;;;;;4.75;2.08;;;;;;;;;;8340854;28;20088;-91
2023/09/04 14:03:18;;;;;;;4.18;2.60;;;;;;;;;;8345368;28;20060;-92
2023/09/04 14:07:26;;;;;;;5.43;2.60;;;;;;;;;;8344683;28;20057;-91
2023/09/04 14:11:29;;;;;;;8.15;2.90;;;;;;;;;;8341694;28;20084;-91
2023/09/04 14:15:32;;;;;;;5.13;2.40;;;;;;;;;;8326080;28;20106;-91
2023/09/04 14:19:36;;;;;;;4.78;2.20;;;;;;;;;;8348048;28;20056;-92
2023/09/04 14:23:41;;;;;;;5.07;2.33;;;;;;;;;;8332341;28;20067;-91
2023/09/04 14:27:44;;;;;;;4.65;2.38;;;;;;;;;;8352100;22;20089;-92
2023/09/04 14:31:47;;;;;;;5.85;2.45;;;;;;;;;;8357608;28;20057;-91
2023/09/04 14:35:58;;;;;;;3.33;2.00;;;;;;;;;;8354803;28;20076;-88
2023/09/04 14:40:06;;;;;;;3.20;2.13;;;;;;;;;;8351729;28;20060;-91
2023/09/04 14:44:09;;;;;;;4.78;2.25;;;;;;;;;;8340824;28;20068;-92
2023/09/04 14:48:12;;;;;;;5.28;2.75;;;;;;;;;;8343384;28;20514;-91
2023/09/04 14:52:16;;;;;;;5.57;2.35;;;;;;;;;;8328709;28;20413;-92
2023/09/04 14:56:25;;;;;;;5.00;2.72;;;;;;;;;;8335064;28;20059;-92
2023/09/04 15:00:29;;;;;;;6.75;2.70;;;;;;;;;;8371869;28;20076;-95
2023/09/04 15:04:35;;;;;;;6.88;2.40;;;;;;;;;;8362988;28;20061;-94
2023/09/04 15:08:40;;;;;;;6.00;2.40;;;;;;;;;;8370033;28;20612;-96
2023/09/04 15:12:44;;;;;;;5.88;2.40;;;;;;;;;;8376380;28;20060;-93
2023/09/04 15:16:47;;;;;;;5.57;2.40;;;;;;;;;;8381381;28;20059;-91
2023/09/04 15:20:51;;;;;;;3.97;2.53;;;;;;;;;;8355738;28;20108;-94
2023/09/04 15:24:54;;;;;;;4.28;2.50;;;;;;;;;;8363367;28;20045;-93
2023/09/04 15:29:02;;;;;;;4.90;2.20;;;;;;;;;;8355030;28;20417;-92
2023/09/04 15:33:06;;;;;;;6.90;2.72;;;;;;;;;;8347581;28;20434;-93
2023/09/04 15:37:10;;;;;;;5.35;2.53;;;;;;;;;;8369392;28;20072;-93
2023/09/04 15:41:13;;;;;;;4.03;2.40;;;;;;;;;;8380153;28;20060;-93
2023/09/04 15:45:19;;;;;;;4.10;2.28;;;;;;;;;;8380346;28;20053;-92
2023/09/04 15:49:22;;;;;;;3.25;2.20;;;;;;;;;;8397891;28;20049;-94
2023/09/04 15:53:29;;;;;;;3.45;2.20;;;;;;;;;;8394347;28;20120;-89
2023/09/04 15:57:32;;;;;;;4.88;2.47;;;;;;;;;;8346877;28;20053;-92
2023/09/04 16:01:39;;;;;;;6.60;2.38;;;;;;;;;;8349534;28;20060;-91
2023/09/04 16:05:44;;;;;;;8.60;2.83;;;;;;;;;;8346471;28;20063;-90
2023/09/04 16:10:07;;;;;;;4.38;2.70;;;;;;;;;;8366395;28;20049;-90
2023/09/04 16:14:16;;;;;;;6.50;3.17;;;;;;;;;;8378455;28;20057;-94
2023/09/04 16:18:27;;;;;;;5.05;2.60;;;;;;;;;;8371575;28;20049;-92
2023/09/04 16:27:26;;;;;;;4.97;2.70;;;;;;;;;;8340805;28;20053;-93
2023/09/04 16:31:31;;;;;;;9.13;3.78;;;;;;;;;;8337538;28;20076;-96
2023/09/04 16:35:37;;;;;;;7.30;3.83;;;;;;;;;;8327662;28;20053;-91
2023/09/04 16:39:42;;;;;;;7.13;3.30;;;;;;;;;;8307467;28;20552;-93
2023/09/04 16:43:46;;;;;;;5.97;3.25;;;;;;;;;;8291567;28;20072;-94
2023/09/04 16:47:50;;;;;;;5.05;3.30;;;;;;;;;;8314786;28;20065;-94
2023/09/04 16:51:57;;;;;;;5.22;3.17;;;;;;;;;;8351563;28;20096;-95
2023/09/04 16:56:01;;;;;;;7.32;3.63;;;;;;;;;;8334458;28;20053;-92
2023/09/04 17:00:11;;;;;;;7.97;4.25;;;;;;;;;;8328684;28;20057;-91
2023/09/04 17:04:29;;;;;;;7.70;5.05;;;;;;;;;;8317008;28;20053;-94
2023/09/04 17:08:36;;;;;;;8.48;5.40;;;;;;;;;;8322596;28;20080;-94
2023/09/04 17:17:11;;;;;;;9.90;5.22;;;;;;;;;;8290582;28;20112;-92
2023/09/04 17:21:15;;;;;;;9.65;5.35;;;;;;;;;;8333569;28;20087;-94
2023/09/04 17:35:33;;;;;;;10.98;5.57;;;;;;;;;;8392389;28;20050;-95
2023/09/04 17:39:56;;;;;;;11.15;6.32;;;;;;;;;;8393648;28;20052;-94
2023/09/04 17:44:00;;;;;;;;;;;;;;;;;;8398785;28;20127;-95
2023/09/04 17:48:09;;;;;;;10.80;5.72;;;;;;;;;;8379479;28;19928;-93
2023/09/04 17:52:14;;;;;;;10.88;5.97;;;;;;;;;;8387770;28;20076;-93
2023/09/04 17:56:19;;;;;;;13.23;6.05;;;;;;;;;;8394411;28;20057;-93
2023/09/04 18:00:24;;;;;;;18.20;7.00;;;;;;;;;;8393135;28;20064;-96
2023/09/04 18:09:31;;;;;;;21.55;9.05;;;;;;;;;;8389093;28;20143;-91
2023/09/04 18:13:36;;;;;;;9.80;5.88;;;;;;;;;;8411131;28;20053;-92
2023/09/04 18:17:55;;;;;;;15.57;5.82;;;;;;;;;;8392131;28;20446;-94
2023/09/04 18:22:00;;;;;;;9.65;6.03;;;;;;;;;;8391193;28;20056;-96
2023/09/04 18:30:45;;;;;;;12.40;6.32;;;;;;;;;;8361224;28;20061;-95
2023/09/04 18:34:52;;;;;;;9.40;5.45;;;;;;;;;;8327314;28;20055;-95
2023/09/04 18:38:56;;;;;;;12.00;5.82;;;;;;;;;;8322906;28;20083;-89
2023/09/04 18:43:10;;;;;;;9.23;5.93;;;;;;;;;;8354303;28;20056;-92
2023/09/04 18:47:18;;;;;;;21.17;9.20;;;;;;;;;;8345276;28;20095;-92
2023/09/04 18:51:34;;;;;;;11.13;6.18;;;;;;;;;;8335158;28;20417;-93
2023/09/04 18:55:41;;;;;;;17.55;9.18;;;;;;;;;;8368118;28;20109;-92
2023/09/04 18:59:45;;;;;;;13.52;7.40;;;;;;;;;;8363308;28;20126;-93
2023/09/04 19:03:51;;;;;;;11.98;6.80;;;;;;;;;;8364204;28;20049;-91
2023/09/04 19:08:00;;;;;;;10.00;6.20;;;;;;;;;;8368424;28;20061;-92
2023/09/04 19:12:11;;;;;;;11.25;5.82;;;;;;;;;;8365617;28;20114;-91
2023/09/04 19:16:20;;;;;;;10.23;5.75;;;;;;;;;;8356164;28;20150;-91
2023/09/04 19:20:24;;;;;;;9.82;5.57;;;;;;;;;;8354487;28;20128;-90
2023/09/04 19:24:30;;;;;;;10.10;5.90;;;;;;;;;;8367162;28;20140;-93
2023/09/04 19:28:37;;;;;;;8.00;5.28;;;;;;;;;;8382674;28;20049;-89
2023/09/04 19:32:45;;;;;;;11.35;6.05;;;;;;;;;;8390793;28;20053;-92
2023/09/04 19:36:51;;;;;;;10.02;6.55;;;;;;;;;;8399310;28;20053;-89
2023/09/04 19:41:03;;;;;;;21.70;8.40;;;;;;;;;;8382249;28;20068;-89
2023/09/04 19:45:08;;;;;;;11.82;6.57;;;;;;;;;;8399251;28;20063;-91
2023/09/04 19:49:16;;;;;;;51.65;19.98;;;;;;;;;;8395841;28;20083;-90
2023/09/04 19:53:22;;;;;;;11.68;6.43;;;;;;;;;;8388133;28;20057;-90
2023/09/04 19:57:28;;;;;;;17.20;9.05;;;;;;;;;;8397847;28;20652;-92
2023/09/04 20:01:32;;;;;;;14.43;6.43;;;;;;;;;;8374855;28;20057;-89
2023/09/04 20:05:44;;;;;;;10.77;5.75;;;;;;;;;;8398205;28;20108;-93
2023/09/04 20:09:59;;;;;;;11.45;6.60;;;;;;;;;;8364004;28;20053;-92
2023/09/04 20:23:36;;;;;;;12.85;6.20;;;;;;;;;;8249302;28;20116;-88
2023/09/04 20:27:40;;;;;;;10.27;5.70;;;;;;;;;;8190212;28;20065;-92
2023/09/04 20:32:01;;;;;;;11.48;5.88;;;;;;;;;;8207506;29;20052;-95
2023/09/04 20:36:06;;;;;;;8.75;5.43;;;;;;;;;;8208846;29;20137;-95
2023/09/04 20:40:13;;;;;;;9.38;5.88;;;;;;;;;;8200643;29;20063;-96
2023/09/04 20:44:17;;;;;;;11.63;6.45;;;;;;;;;;8199057;29;20110;-95
2023/09/04 20:48:23;;;;;;;11.05;6.45;;;;;;;;;;8351044;28;20107;-94
2023/09/04 20:52:26;;;;;;;10.80;6.03;;;;;;;;;;8366534;28;20057;-94
2023/09/04 20:56:29;;;;;;;12.88;6.07;;;;;;;;;;8361693;28;20053;-95
2023/09/04 21:00:34;;;;;;;13.68;6.72;;;;;;;;;;8373536;28;20083;-87
2023/09/04 21:04:38;;;;;;;11.38;6.07;;;;;;;;;;8372939;28;20123;-94
2023/09/04 23:25:25;;;;;;;15.10;7.23;;;;;;;;;;8385548;28;20057;-92
2023/09/04 23:29:32;;;;;;;14.48;7.07;;;;;;;;;;8400949;28;20401;-95
2023/09/04 23:33:45;;;;;;;16.73;7.63;;;;;;;;;;8408711;28;20131;-89
2023/09/04 23:38:05;;;;;;;;;;;;;;;;;;8415214;28;20075;-95
2023/09/04 23:46:33;;;;;;;14.57;7.25;;;;;;;;;;8413723;28;20499;-91
2023/09/04 23:50:35;;;;;;;12.20;6.45;;;;;;;;;;8399969;28;20049;-94
2023/09/04 23:54:38;;;;;;;12.32;6.90;;;;;;;;;;8400387;28;20459;-94
2023/09/04 23:58:44;;;;;;;15.88;7.40;;;;;;;;;;8400527;28;20484;-87
